sensor_id;sensor_type;location;lat;lon;timestamp;pressure;altitude;pressure_sealevel;temperature;humidity
12963;BME280;6546;49.882;8.666;2022-12-18T00:02:21;101221.41;;;-6.79;100.00
12963;BME280;6546;49.882;8.666;2022-12-18T00:04:49;101217.59;;;-6.84;100.00
12963;BME280;6546;49.882;8.666;2022-12-18T00:07:17;101209.84;;;-6.68;100.00
12963;BME280;6546;49.882;8.666;2022-12-18T00:09:45;101203.88;;;-6.60;100.00
12963;BME280;6546;49.882;8.666;2022-12-18T00:12:12;101194.34;;;-6.54;100.00
12963;BME280;6546;49.882;8.666;2022-12-18T00:14:39;101199.13;;;-6.57;100.00
12963;BME280;6546;49.882;8.666;2022-12-18T00:17:06;101188.19;;;-6.57;100.00
12963;BME280;6546;49.882;8.666;2022-12-18T00:19:32;101194.78;;;-6.76;100.00
12963;BME280;6546;49.882;8.666;2022-12-18T00:22:01;101214.03;;;-6.77;100.00
12963;BME280;6546;49.882;8.666;2022-12-18T00:24:27;101209.03;;;-6.86;100.00
12963;BME280;6546;49.882;8.666;2022-12-18T00:26:54;101211.81;;;-7.19;100.00
12963;BME280;6546;49.882;8.666;2022-12-18T00:29:21;101217.47;;;-7.47;100.00
12963;BME280;6546;49.882;8.666;2022-12-18T00:31:49;101222.03;;;-7.35;100.00
12963;BME280;6546;49.882;8.666;2022-12-18T00:34:16;101224.22;;;-7.12;100.00
12963;BME280;6546;49.882;8.666;2022-12-18T00:36:43;101221.81;;;-7.01;100.00
12963;BME280;6546;49.882;8.666;2022-12-18T00:39:11;101235.13;;;-7.03;100.00
12963;BME280;6546;49.882;8.666;2022-12-18T00:41:38;101224.78;;;-7.06;100.00
12963;BME280;6546;49.882;8.666;2022-12-18T00:44:22;101218.13;;;-7.05;100.00
12963;BME280;6546;49.882;8.666;2022-12-18T00:46:49;101211.19;;;-7.08;100.00
12963;BME280;6546;49.882;8.666;2022-12-18T00:49:18;101204.69;;;-7.14;100.00
12963;BME280;6546;49.882;8.666;2022-12-18T00:51:45;101200.84;;;-7.11;100.00
12963;BME280;6546;49.882;8.666;2022-12-18T00:54:13;101200.00;;;-7.20;100.00
12963;BME280;6546;49.882;8.666;2022-12-18T00:56:40;101206.47;;;-7.22;100.00
12963;BME280;6546;49.882;8.666;2022-12-18T00:59:07;101209.00;;;-7.22;100.00
12963;BME280;6546;49.882;8.666;2022-12-18T01:01:34;101214.78;;;-7.23;100.00
12963;BME280;6546;49.882;8.666;2022-12-18T01:04:02;101212.72;;;-7.27;100.00
12963;BME280;6546;49.882;8.666;2022-12-18T01:06:29;101222.50;;;-7.39;100.00
12963;BME280;6546;49.882;8.666;2022-12-18T01:08:57;101217.75;;;-7.27;100.00
12963;BME280;6546;49.882;8.666;2022-12-18T01:11:25;101226.63;;;-7.31;100.00
12963;BME280;6546;49.882;8.666;2022-12-18T01:13:53;101215.66;;;-7.22;100.00
12963;BME280;6546;49.882;8.666;2022-12-18T01:16:21;101212.66;;;-7.10;100.00
12963;BME280;6546;49.882;8.666;2022-12-18T01:18:51;101217.97;;;-7.07;100.00
12963;BME280;6546;49.882;8.666;2022-12-18T01:21:18;101216.81;;;-7.10;100.00
12963;BME280;6546;49.882;8.666;2022-12-18T01:23:45;101223.66;;;-7.35;100.00
12963;BME280;6546;49.882;8.666;2022-12-18T01:26:14;101227.19;;;-7.33;100.00
12963;BME280;6546;49.882;8.666;2022-12-18T01:28:43;101227.81;;;-7.36;100.00
12963;BME280;6546;49.882;8.666;2022-12-18T01:31:12;101228.41;;;-7.47;100.00
12963;BME280;6546;49.882;8.666;2022-12-18T01:33:39;101218.69;;;-7.53;100.00
12963;BME280;6546;49.882;8.666;2022-12-18T01:36:06;101217.31;;;-7.40;100.00
12963;BME280;6546;49.882;8.666;2022-12-18T01:38:33;101224.41;;;-7.36;100.00
12963;BME280;6546;49.882;8.666;2022-12-18T01:41:02;101237.25;;;-7.42;100.00
12963;BME280;6546;49.882;8.666;2022-12-18T01:43:47;101249.09;;;-7.32;100.00
12963;BME280;6546;49.882;8.666;2022-12-18T01:46:14;101248.34;;;-7.31;100.00
12963;BME280;6546;49.882;8.666;2022-12-18T01:48:42;101249.38;;;-7.29;100.00
12963;BME280;6546;49.882;8.666;2022-12-18T01:51:10;101256.19;;;-7.28;100.00
12963;BME280;6546;49.882;8.666;2022-12-18T01:53:40;101247.31;;;-7.33;100.00
12963;BME280;6546;49.882;8.666;2022-12-18T01:56:12;101242.00;;;-7.36;100.00
12963;BME280;6546;49.882;8.666;2022-12-18T01:58:45;101248.19;;;-7.24;100.00
12963;BME280;6546;49.882;8.666;2022-12-18T02:01:15;101239.47;;;-7.28;100.00
12963;BME280;6546;49.882;8.666;2022-12-18T02:03:44;101237.25;;;-7.33;100.00
12963;BME280;6546;49.882;8.666;2022-12-18T02:06:15;101240.50;;;-7.34;100.00
12963;BME280;6546;49.882;8.666;2022-12-18T02:08:50;101242.91;;;-7.36;100.00
12963;BME280;6546;49.882;8.666;2022-12-18T02:11:25;101252.34;;;-7.33;100.00
12963;BME280;6546;49.882;8.666;2022-12-18T02:14:04;101234.59;;;-7.35;100.00
12963;BME280;6546;49.882;8.666;2022-12-18T02:16:39;101237.13;;;-7.43;100.00
12963;BME280;6546;49.882;8.666;2022-12-18T02:19:25;101233.44;;;-7.47;100.00
12963;BME280;6546;49.882;8.666;2022-12-18T02:21:58;101235.22;;;-7.55;100.00
12963;BME280;6546;49.882;8.666;2022-12-18T02:24:34;101227.53;;;-7.47;100.00
12963;BME280;6546;49.882;8.666;2022-12-18T02:27:04;101227.84;;;-7.62;100.00
12963;BME280;6546;49.882;8.666;2022-12-18T02:29:36;101228.75;;;-7.70;100.00
12963;BME280;6546;49.882;8.666;2022-12-18T02:32:08;101215.13;;;-7.63;100.00
12963;BME280;6546;49.882;8.666;2022-12-18T02:34:38;101215.44;;;-7.69;100.00
12963;BME280;6546;49.882;8.666;2022-12-18T02:37:07;101207.13;;;-7.50;100.00
12963;BME280;6546;49.882;8.666;2022-12-18T02:39:37;101210.38;;;-7.51;100.00
12963;BME280;6546;49.882;8.666;2022-12-18T02:42:06;101207.56;;;-7.37;100.00
12963;BME280;6546;49.882;8.666;2022-12-18T02:44:34;101203.56;;;-7.35;100.00
12963;BME280;6546;49.882;8.666;2022-12-18T02:47:01;101214.19;;;-7.38;100.00
12963;BME280;6546;49.882;8.666;2022-12-18T02:49:40;101199.44;;;-7.43;100.00
12963;BME280;6546;49.882;8.666;2022-12-18T02:52:15;101199.75;;;-7.40;100.00
12963;BME280;6546;49.882;8.666;2022-12-18T02:54:54;101200.03;;;-7.37;100.00
12963;BME280;6546;49.882;8.666;2022-12-18T02:57:33;101200.31;;;-7.43;100.00
12963;BME280;6546;49.882;8.666;2022-12-18T03:00:04;101204.63;;;-7.50;100.00
12963;BME280;6546;49.882;8.666;2022-12-18T03:02:37;101206.13;;;-7.53;100.00
12963;BME280;6546;49.882;8.666;2022-12-18T03:05:10;101214.53;;;-7.61;100.00
12963;BME280;6546;49.882;8.666;2022-12-18T03:07:43;101219.00;;;-7.58;100.00
12963;BME280;6546;49.882;8.666;2022-12-18T03:10:13;101219.56;;;-7.69;100.00
12963;BME280;6546;49.882;8.666;2022-12-18T03:12:44;101245.56;;;-7.69;100.00
12963;BME280;6546;49.882;8.666;2022-12-18T03:15:16;101252.81;;;-7.72;100.00
12963;BME280;6546;49.882;8.666;2022-12-18T03:17:46;101243.22;;;-7.76;100.00
12963;BME280;6546;49.882;8.666;2022-12-18T03:20:18;101241.44;;;-7.68;100.00
12963;BME280;6546;49.882;8.666;2022-12-18T03:22:49;101239.66;;;-7.69;100.00
12963;BME280;6546;49.882;8.666;2022-12-18T03:25:18;101237.91;;;-7.70;100.00
12963;BME280;6546;49.882;8.666;2022-12-18T03:27:49;101245.28;;;-7.81;100.00
12963;BME280;6546;49.882;8.666;2022-12-18T03:30:18;101242.50;;;-7.75;100.00
12963;BME280;6546;49.882;8.666;2022-12-18T03:32:47;101238.78;;;-7.79;100.00
12963;BME280;6546;49.882;8.666;2022-12-18T03:35:20;101236.13;;;-7.80;100.00
12963;BME280;6546;49.882;8.666;2022-12-18T03:37:48;101231.84;;;-7.81;100.00
12963;BME280;6546;49.882;8.666;2022-12-18T03:40:15;101224.59;;;-7.78;100.00
12963;BME280;6546;49.882;8.666;2022-12-18T03:42:47;101226.94;;;-7.80;100.00
12963;BME280;6546;49.882;8.666;2022-12-18T03:45:20;101218.84;;;-7.77;100.00
12963;BME280;6546;49.882;8.666;2022-12-18T03:47:57;101221.03;;;-7.80;100.00
12963;BME280;6546;49.882;8.666;2022-12-18T03:50:29;101210.44;;;-7.86;100.00
12963;BME280;6546;49.882;8.666;2022-12-18T03:53:14;101208.34;;;-7.90;100.00
12963;BME280;6546;49.882;8.666;2022-12-18T03:55:44;101208.34;;;-7.90;100.00
12963;BME280;6546;49.882;8.666;2022-12-18T03:58:16;101202.16;;;-8.02;100.00
12963;BME280;6546;49.882;8.666;2022-12-18T04:00:44;101208.78;;;-8.12;100.00
12963;BME280;6546;49.882;8.666;2022-12-18T04:03:12;101208.03;;;-8.11;100.00
12963;BME280;6546;49.882;8.666;2022-12-18T04:05:41;101204.22;;;-8.07;100.00
12963;BME280;6546;49.882;8.666;2022-12-18T04:08:13;101199.78;;;-8.01;100.00
12963;BME280;6546;49.882;8.666;2022-12-18T04:10:41;101198.31;;;-8.08;100.00
12963;BME280;6546;49.882;8.666;2022-12-18T04:13:09;101196.81;;;-8.06;100.00
12963;BME280;6546;49.882;8.666;2022-12-18T04:15:37;101211.00;;;-8.06;100.00
12963;BME280;6546;49.882;8.666;2022-12-18T04:18:05;101211.31;;;-8.03;100.00
12963;BME280;6546;49.882;8.666;2022-12-18T04:20:31;101216.91;;;-8.06;100.00
12963;BME280;6546;49.882;8.666;2022-12-18T04:23:00;101216.19;;;-8.05;100.00
12963;BME280;6546;49.882;8.666;2022-12-18T04:25:26;101217.53;;;-7.99;100.00
12963;BME280;6546;49.882;8.666;2022-12-18T04:27:53;101219.28;;;-7.98;100.00
12963;BME280;6546;49.882;8.666;2022-12-18T04:30:22;101216.47;;;-8.01;100.00
12963;BME280;6546;49.882;8.666;2022-12-18T04:32:50;101202.16;;;-7.85;100.00
12963;BME280;6546;49.882;8.666;2022-12-18T04:35:17;101196.84;;;-7.71;100.00
12963;BME280;6546;49.882;8.666;2022-12-18T04:37:44;101199.47;;;-7.69;100.00
12963;BME280;6546;49.882;8.666;2022-12-18T04:40:12;101196.53;;;-7.74;100.00
12963;BME280;6546;49.882;8.666;2022-12-18T04:42:38;101194.00;;;-7.65;100.00
12963;BME280;6546;49.882;8.666;2022-12-18T04:45:06;101191.19;;;-7.60;100.00
12963;BME280;6546;49.882;8.666;2022-12-18T04:47:33;101181.59;;;-7.64;100.00
12963;BME280;6546;49.882;8.666;2022-12-18T04:50:01;101192.69;;;-7.62;100.00
12963;BME280;6546;49.882;8.666;2022-12-18T04:52:27;101190.91;;;-7.71;100.00
12963;BME280;6546;49.882;8.666;2022-12-18T04:54:54;101188.53;;;-7.61;100.00
12963;BME280;6546;49.882;8.666;2022-12-18T04:57:20;101191.19;;;-7.60;100.00
12963;BME280;6546;49.882;8.666;2022-12-18T04:59:47;101194.75;;;-7.66;100.00
12963;BME280;6546;49.882;8.666;2022-12-18T05:02:13;101191.19;;;-7.68;100.00
12963;BME280;6546;49.882;8.666;2022-12-18T05:04:40;101194.16;;;-7.64;100.00
12963;BME280;6546;49.882;8.666;2022-12-18T05:07:08;101207.03;;;-7.69;100.00
12963;BME280;6546;49.882;8.666;2022-12-18T05:09:34;101215.88;;;-7.73;100.00
12963;BME280;6546;49.882;8.666;2022-12-18T05:12:01;101209.84;;;-7.75;100.00
12963;BME280;6546;49.882;8.666;2022-12-18T05:14:27;101217.06;;;-7.78;100.00
12963;BME280;6546;49.882;8.666;2022-12-18T05:16:54;101214.41;;;-7.80;100.00
12963;BME280;6546;49.882;8.666;2022-12-18T05:19:21;101215.59;;;-7.85;100.00
12963;BME280;6546;49.882;8.666;2022-12-18T05:21:47;101213.94;;;-7.84;100.00
12963;BME280;6546;49.882;8.666;2022-12-18T05:24:15;101213.38;;;-7.73;100.00
12963;BME280;6546;49.882;8.666;2022-12-18T05:26:42;101213.94;;;-7.67;100.00
12963;BME280;6546;49.882;8.666;2022-12-18T05:29:08;101219.88;;;-7.58;100.00
12963;BME280;6546;49.882;8.666;2022-12-18T05:31:37;101230.50;;;-7.60;100.00
12963;BME280;6546;49.882;8.666;2022-12-18T05:34:04;101225.75;;;-7.48;100.00
12963;BME280;6546;49.882;8.666;2022-12-18T05:36:30;101227.84;;;-7.44;100.00
12963;BME280;6546;49.882;8.666;2022-12-18T05:38:57;101221.03;;;-7.45;100.00
12963;BME280;6546;49.882;8.666;2022-12-18T05:41:25;101219.53;;;-7.43;100.00
12963;BME280;6546;49.882;8.666;2022-12-18T05:43:52;101212.75;;;-7.44;100.00
12963;BME280;6546;49.882;8.666;2022-12-18T05:46:19;101203.44;;;-7.45;100.00
12963;BME280;6546;49.882;8.666;2022-12-18T05:48:45;101207.72;;;-7.44;100.00
12963;BME280;6546;49.882;8.666;2022-12-18T05:51:15;101199.75;;;-7.40;100.00
12963;BME280;6546;49.882;8.666;2022-12-18T05:53:43;101197.34;;;-7.30;100.00
12963;BME280;6546;49.882;8.666;2022-12-18T05:56:12;101200.31;;;-7.34;100.00
12963;BME280;6546;49.882;8.666;2022-12-18T05:58:41;101199.13;;;-7.46;100.00
12963;BME280;6546;49.882;8.666;2022-12-18T06:01:10;101194.53;;;-7.42;100.00
12963;BME280;6546;49.882;8.666;2022-12-18T06:03:38;101184.06;;;-7.46;100.00
12963;BME280;6546;49.882;8.666;2022-12-18T06:06:15;101192.34;;;-7.47;100.00
12963;BME280;6546;49.882;8.666;2022-12-18T06:08:42;101190.88;;;-7.45;100.00
12963;BME280;6546;49.882;8.666;2022-12-18T06:11:08;101187.28;;;-7.30;100.00
12963;BME280;6546;49.882;8.666;2022-12-18T06:13:35;101198.50;;;-7.26;100.00
12963;BME280;6546;49.882;8.666;2022-12-18T06:16:03;101202.97;;;-7.24;100.00
12963;BME280;6546;49.882;8.666;2022-12-18T06:18:30;101203.22;;;-7.21;100.00
12963;BME280;6546;49.882;8.666;2022-12-18T06:20:57;101215.34;;;-7.17;100.00
12963;BME280;6546;49.882;8.666;2022-12-18T06:23:25;101210.63;;;-7.22;100.00
12963;BME280;6546;49.882;8.666;2022-12-18T06:25:51;101216.09;;;-7.26;100.00
12963;BME280;6546;49.882;8.666;2022-12-18T06:28:18;101226.19;;;-7.35;100.00
12963;BME280;6546;49.882;8.666;2022-12-18T06:30:45;101232.22;;;-7.33;100.00
12963;BME280;6546;49.882;8.666;2022-12-18T06:33:13;101234.75;;;-7.33;100.00
12963;BME280;6546;49.882;8.666;2022-12-18T06:35:40;101240.81;;;-7.31;100.00
12963;BME280;6546;49.882;8.666;2022-12-18T06:38:07;101240.94;;;-7.21;100.00
12963;BME280;6546;49.882;8.666;2022-12-18T06:40:34;101244.63;;;-7.17;100.00
12963;BME280;6546;49.882;8.666;2022-12-18T06:43:00;101250.53;;;-7.17;100.00
12963;BME280;6546;49.882;8.666;2022-12-18T06:45:27;101252.03;;;-7.19;100.00
12963;BME280;6546;49.882;8.666;2022-12-18T06:47:53;101253.19;;;-7.07;100.00
12963;BME280;6546;49.882;8.666;2022-12-18T06:50:21;101246.94;;;-7.01;100.00
12963;BME280;6546;49.882;8.666;2022-12-18T06:52:48;101249.00;;;-6.97;100.00
12963;BME280;6546;49.882;8.666;2022-12-18T06:55:14;101254.19;;;-7.05;100.00
12963;BME280;6546;49.882;8.666;2022-12-18T06:57:44;101260.28;;;-7.03;100.00
12963;BME280;6546;49.882;8.666;2022-12-18T07:00:12;101252.72;;;-7.03;100.00
12963;BME280;6546;49.882;8.666;2022-12-18T07:02:39;101257.00;;;-7.01;100.00
12963;BME280;6546;49.882;8.666;2022-12-18T07:05:06;101255.84;;;-7.05;100.00
12963;BME280;6546;49.882;8.666;2022-12-18T07:07:34;101249.34;;;-7.12;100.00
12963;BME280;6546;49.882;8.666;2022-12-18T07:10:02;101248.72;;;-7.00;100.00
12963;BME280;6546;49.882;8.666;2022-12-18T07:12:29;101257.59;;;-7.04;100.00
12963;BME280;6546;49.882;8.666;2022-12-18T07:14:55;101263.25;;;-7.07;100.00
12963;BME280;6546;49.882;8.666;2022-12-18T07:17:22;101273.59;;;-7.04;100.00
12963;BME280;6546;49.882;8.666;2022-12-18T07:19:48;101279.22;;;-7.15;100.00
12963;BME280;6546;49.882;8.666;2022-12-18T07:22:31;101279.81;;;-7.17;100.00
12963;BME280;6546;49.882;8.666;2022-12-18T07:24:58;101273.59;;;-7.12;100.00
12963;BME280;6546;49.882;8.666;2022-12-18T07:27:24;101278.63;;;-7.12;100.00
12963;BME280;6546;49.882;8.666;2022-12-18T07:29:51;101286.88;;;-7.05;100.00
12963;BME280;6546;49.882;8.666;2022-12-18T07:32:18;101281.28;;;-7.02;100.00
12963;BME280;6546;49.882;8.666;2022-12-18T07:34:47;101276.84;;;-7.05;100.00
12963;BME280;6546;49.882;8.666;2022-12-18T07:37:17;101276.13;;;-7.04;100.00
12963;BME280;6546;49.882;8.666;2022-12-18T07:39:45;101269.72;;;-7.00;100.00
12963;BME280;6546;49.882;8.666;2022-12-18T07:42:11;101274.16;;;-6.97;100.00
12963;BME280;6546;49.882;8.666;2022-12-18T07:44:55;101263.22;;;-6.98;100.00
12963;BME280;6546;49.882;8.666;2022-12-18T07:47:22;101258.78;;;-7.00;100.00
12963;BME280;6546;49.882;8.666;2022-12-18T07:49:48;101273.56;;;-6.95;100.00
12963;BME280;6546;49.882;8.666;2022-12-18T07:52:15;101261.13;;;-6.93;100.00
12963;BME280;6546;49.882;8.666;2022-12-18T07:54:44;101267.34;;;-6.90;100.00
12963;BME280;6546;49.882;8.666;2022-12-18T07:57:15;101272.63;;;-6.78;100.00
12963;BME280;6546;49.882;8.666;2022-12-18T07:59:42;101266.09;;;-6.76;100.00
12963;BME280;6546;49.882;8.666;2022-12-18T08:02:09;101273.53;;;-6.86;100.00
12963;BME280;6546;49.882;8.666;2022-12-18T08:04:35;101275.00;;;-6.88;100.00
12963;BME280;6546;49.882;8.666;2022-12-18T08:07:02;101277.94;;;-6.75;100.00
12963;BME280;6546;49.882;8.666;2022-12-18T08:09:29;101288.00;;;-6.75;100.00
12963;BME280;6546;49.882;8.666;2022-12-18T08:11:55;101287.13;;;-6.84;100.00
12963;BME280;6546;49.882;8.666;2022-12-18T08:14:23;101292.16;;;-6.84;100.00
12963;BME280;6546;49.882;8.666;2022-12-18T08:16:50;101292.16;;;-6.84;100.00
12963;BME280;6546;49.882;8.666;2022-12-18T08:19:16;101292.09;;;-6.67;100.00
12963;BME280;6546;49.882;8.666;2022-12-18T08:21:43;101295.97;;;-6.70;100.00
12963;BME280;6546;49.882;8.666;2022-12-18T08:24:10;101292.25;;;-6.57;100.00
12963;BME280;6546;49.882;8.666;2022-12-18T08:26:37;101288.38;;;-6.62;100.00
12963;BME280;6546;49.882;8.666;2022-12-18T08:29:03;101290.72;;;-6.55;100.00
12963;BME280;6546;49.882;8.666;2022-12-18T08:31:31;101286.16;;;-6.59;100.00
12963;BME280;6546;49.882;8.666;2022-12-18T08:33:58;101288.22;;;-6.55;100.00
12963;BME280;6546;49.882;8.666;2022-12-18T08:36:25;101280.34;;;-6.49;100.00
12963;BME280;6546;49.882;8.666;2022-12-18T08:38:52;101293.50;;;-6.43;100.00
12963;BME280;6546;49.882;8.666;2022-12-18T08:41:19;101290.56;;;-6.47;100.00
12963;BME280;6546;49.882;8.666;2022-12-18T08:43:46;101287.88;;;-6.40;100.00
12963;BME280;6546;49.882;8.666;2022-12-18T08:46:35;101286.38;;;-6.38;100.00
12963;BME280;6546;49.882;8.666;2022-12-18T08:49:05;101273.31;;;-6.34;100.00
12963;BME280;6546;49.882;8.666;2022-12-18T08:51:32;101268.41;;;-6.33;100.00
12963;BME280;6546;49.882;8.666;2022-12-18T08:54:02;101268.13;;;-6.27;100.00
12963;BME280;6546;49.882;8.666;2022-12-18T08:56:28;101245.44;;;-6.27;100.00
12963;BME280;6546;49.882;8.666;2022-12-18T08:58:56;101247.34;;;-6.24;100.00
12963;BME280;6546;49.882;8.666;2022-12-18T09:01:25;101254.31;;;-6.22;100.00
12963;BME280;6546;49.882;8.666;2022-12-18T09:03:53;101261.69;;;-6.15;100.00
12963;BME280;6546;49.882;8.666;2022-12-18T09:06:22;101261.97;;;-6.20;100.00
12963;BME280;6546;49.882;8.666;2022-12-18T09:08:54;101255.06;;;-6.04;100.00
12963;BME280;6546;49.882;8.666;2022-12-18T09:11:23;101250.91;;;-6.04;100.00
12963;BME280;6546;49.882;8.666;2022-12-18T09:13:53;101249.56;;;-6.00;100.00
12963;BME280;6546;49.882;8.666;2022-12-18T09:16:21;101249.28;;;-5.84;100.00
12963;BME280;6546;49.882;8.666;2022-12-18T09:18:48;101255.06;;;-5.85;100.00
12963;BME280;6546;49.882;8.666;2022-12-18T09:21:18;101269.84;;;-5.80;100.00
12963;BME280;6546;49.882;8.666;2022-12-18T09:23:49;101281.47;;;-5.90;100.00
12963;BME280;6546;49.882;8.666;2022-12-18T09:26:16;101288.06;;;-5.82;100.00
12963;BME280;6546;49.882;8.666;2022-12-18T09:28:43;101281.06;;;-5.76;100.00
12963;BME280;6546;49.882;8.666;2022-12-18T09:31:11;101287.88;;;-5.75;100.00
12963;BME280;6546;49.882;8.666;2022-12-18T09:33:43;101292.97;;;-5.65;100.00
12963;BME280;6546;49.882;8.666;2022-12-18T09:36:12;101291.78;;;-5.60;100.00
12963;BME280;6546;49.882;8.666;2022-12-18T09:38:40;101297.63;;;-5.50;100.00
12963;BME280;6546;49.882;8.666;2022-12-18T09:41:17;101295.03;;;-5.61;100.00
12963;BME280;6546;49.882;8.666;2022-12-18T09:43:57;101296.81;;;-5.60;100.00
12963;BME280;6546;49.882;8.666;2022-12-18T09:46:28;101284.28;;;-5.49;100.00
12963;BME280;6546;49.882;8.666;2022-12-18T09:48:59;101284.28;;;-5.49;100.00
12963;BME280;6546;49.882;8.666;2022-12-18T09:51:29;101272.47;;;-5.40;100.00
12963;BME280;6546;49.882;8.666;2022-12-18T09:54:05;101284.59;;;-5.36;100.00
12963;BME280;6546;49.882;8.666;2022-12-18T09:56:35;101284.75;;;-5.35;100.00
12963;BME280;6546;49.882;8.666;2022-12-18T09:59:04;101287.44;;;-5.23;100.00
12963;BME280;6546;49.882;8.666;2022-12-18T10:01:32;101288.47;;;-5.21;100.00
12963;BME280;6546;49.882;8.666;2022-12-18T10:03:59;101289.97;;;-5.23;100.00
12963;BME280;6546;49.882;8.666;2022-12-18T10:06:30;101286.06;;;-5.19;100.00
12963;BME280;6546;49.882;8.666;2022-12-18T10:09:11;101283.72;;;-5.18;100.00
12963;BME280;6546;49.882;8.666;2022-12-18T10:11:48;101279.69;;;-5.06;100.00
12963;BME280;6546;49.882;8.666;2022-12-18T10:14:22;101290.06;;;-5.03;100.00
12963;BME280;6546;49.882;8.666;2022-12-18T10:16:59;101286.06;;;-4.90;100.00
12963;BME280;6546;49.882;8.666;2022-12-18T10:19:39;101292.16;;;-4.88;100.00
12963;BME280;6546;49.882;8.666;2022-12-18T10:22:21;101300.94;;;-4.93;100.00
12963;BME280;6546;49.882;8.666;2022-12-18T10:24:56;101285.81;;;-4.93;100.00
12963;BME280;6546;49.882;8.666;2022-12-18T10:27:26;101281.53;;;-4.94;100.00
12963;BME280;6546;49.882;8.666;2022-12-18T10:29:53;101280.25;;;-4.99;100.00
12963;BME280;6546;49.882;8.666;2022-12-18T10:32:22;101276.69;;;-5.02;100.00
12963;BME280;6546;49.882;8.666;2022-12-18T10:34:52;101263.84;;;-4.94;100.00
12963;BME280;6546;49.882;8.666;2022-12-18T10:37:20;101253.75;;;-4.94;100.00
12963;BME280;6546;49.882;8.666;2022-12-18T10:40:08;101258.81;;;-4.94;100.00
12963;BME280;6546;49.882;8.666;2022-12-18T10:42:42;101261.50;;;-4.93;100.00
12963;BME280;6546;49.882;8.666;2022-12-18T10:45:14;101277.50;;;-4.92;100.00
12963;BME280;6546;49.882;8.666;2022-12-18T10:47:42;101275.38;;;-4.88;100.00
12963;BME280;6546;49.882;8.666;2022-12-18T10:50:28;101265.63;;;-4.93;100.00
12963;BME280;6546;49.882;8.666;2022-12-18T10:52:57;101267.31;;;-4.84;100.00
12963;BME280;6546;49.882;8.666;2022-12-18T10:55:30;101274.72;;;-4.85;100.00
12963;BME280;6546;49.882;8.666;2022-12-18T10:58:13;101271.47;;;-4.84;100.00
12963;BME280;6546;49.882;8.666;2022-12-18T11:00:43;101266.69;;;-4.81;100.00
12963;BME280;6546;49.882;8.666;2022-12-18T11:03:30;101264.03;;;-4.83;100.00
12963;BME280;6546;49.882;8.666;2022-12-18T11:06:07;101263.75;;;-4.86;100.00
12963;BME280;6546;49.882;8.666;2022-12-18T11:08:38;101268.47;;;-4.80;100.00
12963;BME280;6546;49.882;8.666;2022-12-18T11:11:15;101272.50;;;-4.72;100.00
12963;BME280;6546;49.882;8.666;2022-12-18T11:13:57;101275.56;;;-4.76;100.00
12963;BME280;6546;49.882;8.666;2022-12-18T11:16:26;101267.81;;;-4.78;100.00
12963;BME280;6546;49.882;8.666;2022-12-18T11:18:53;101260.66;;;-4.73;100.00
12963;BME280;6546;49.882;8.666;2022-12-18T11:21:20;101259.03;;;-4.62;100.00
12963;BME280;6546;49.882;8.666;2022-12-18T11:23:49;101268.25;;;-4.63;100.00
12963;BME280;6546;49.882;8.666;2022-12-18T11:26:17;101260.19;;;-4.59;100.00
12963;BME280;6546;49.882;8.666;2022-12-18T11:28:46;101264.22;;;-4.61;100.00
12963;BME280;6546;49.882;8.666;2022-12-18T11:31:24;101265.75;;;-4.53;100.00
12963;BME280;6546;49.882;8.666;2022-12-18T11:34:00;101264.63;;;-4.46;100.00
12963;BME280;6546;49.882;8.666;2022-12-18T11:36:40;101256.03;;;-4.58;100.00
12963;BME280;6546;49.882;8.666;2022-12-18T11:39:15;101254.00;;;-4.52;100.00
12963;BME280;6546;49.882;8.666;2022-12-18T11:41:54;101257.66;;;-4.48;100.00
12963;BME280;6546;49.882;8.666;2022-12-18T11:44:43;101257.28;;;-4.43;100.00
12963;BME280;6546;49.882;8.666;2022-12-18T11:47:18;101252.25;;;-4.43;100.00
12963;BME280;6546;49.882;8.666;2022-12-18T11:50:01;101249.47;;;-4.46;100.00
12963;BME280;6546;49.882;8.666;2022-12-18T11:52:33;101250.38;;;-4.35;100.00
12963;BME280;6546;49.882;8.666;2022-12-18T11:55:11;101239.75;;;-4.41;100.00
12963;BME280;6546;49.882;8.666;2022-12-18T11:57:47;101240.00;;;-4.38;100.00
12963;BME280;6546;49.882;8.666;2022-12-18T12:00:23;101242.16;;;-4.22;100.00
12963;BME280;6546;49.882;8.666;2022-12-18T12:03:18;101236.97;;;-4.14;100.00
12963;BME280;6546;49.882;8.666;2022-12-18T12:06:01;101249.38;;;-4.17;100.00
12963;BME280;6546;49.882;8.666;2022-12-18T12:08:37;101248.47;;;-4.17;100.00
12963;BME280;6546;49.882;8.666;2022-12-18T12:11:20;101244.06;;;-4.10;100.00
12963;BME280;6546;49.882;8.666;2022-12-18T12:14:05;101253.16;;;-4.02;100.00
12963;BME280;6546;49.882;8.666;2022-12-18T12:16:37;101251.50;;;-4.01;100.00
12963;BME280;6546;49.882;8.666;2022-12-18T12:19:22;101247.09;;;-3.93;100.00
12963;BME280;6546;49.882;8.666;2022-12-18T12:21:59;101238.25;;;-3.98;100.00
12963;BME280;6546;49.882;8.666;2022-12-18T12:24:37;101240.75;;;-3.88;100.00
12963;BME280;6546;49.882;8.666;2022-12-18T12:27:10;101244.56;;;-3.83;100.00
12963;BME280;6546;49.882;8.666;2022-12-18T12:29:59;101235.44;;;-3.81;100.00
12963;BME280;6546;49.882;8.666;2022-12-18T12:32:45;101223.22;;;-3.87;100.00
12963;BME280;6546;49.882;8.666;2022-12-18T12:35:28;101231.13;;;-3.72;100.00
12963;BME280;6546;49.882;8.666;2022-12-18T12:38:03;101217.25;;;-3.77;100.00
12963;BME280;6546;49.882;8.666;2022-12-18T12:40:40;101209.81;;;-3.86;100.00
12963;BME280;6546;49.882;8.666;2022-12-18T12:43:21;101210.94;;;-3.82;100.00
12963;BME280;6546;49.882;8.666;2022-12-18T12:45:59;101222.41;;;-3.76;100.00
12963;BME280;6546;49.882;8.666;2022-12-18T12:48:41;101216.47;;;-3.76;100.00
12963;BME280;6546;49.882;8.666;2022-12-18T12:51:13;101207.25;;;-3.76;100.00
12963;BME280;6546;49.882;8.666;2022-12-18T12:53:41;101219.16;;;-3.74;100.00
12963;BME280;6546;49.882;8.666;2022-12-18T12:56:11;101209.41;;;-3.70;100.00
12963;BME280;6546;49.882;8.666;2022-12-18T12:58:51;101216.69;;;-3.63;100.00
12963;BME280;6546;49.882;8.666;2022-12-18T13:01:28;101211.13;;;-3.59;100.00
12963;BME280;6546;49.882;8.666;2022-12-18T13:04:08;101204.41;;;-3.58;100.00
12963;BME280;6546;49.882;8.666;2022-12-18T13:06:44;101218.59;;;-3.60;100.00
12963;BME280;6546;49.882;8.666;2022-12-18T13:09:12;101212.16;;;-3.57;100.00